sensor_id;sensor_type;location;lat;lon;timestamp;P1;durP1;ratioP1;P2;durP2;ratioP2
4585;SDS011;2305;50.118;8.952;2023-03-04T00:03:54;17.80;;;8.87;;
4585;SDS011;2305;50.118;8.952;2023-03-04T00:06:23;18.10;;;8.90;;
4585;SDS011;2305;50.118;8.952;2023-03-04T00:08:51;13.47;;;7.40;;
4585;SDS011;2305;50.118;8.952;2023-03-04T00:11:21;13.23;;;8.03;;
4585;SDS011;2305;50.118;8.952;2023-03-04T00:13:51;17.60;;;9.80;;
4585;SDS011;2305;50.118;8.952;2023-03-04T00:16:19;19.90;;;8.50;;
4585;SDS011;2305;50.118;8.952;2023-03-04T00:18:49;14.00;;;8.57;;
4585;SDS011;2305;50.118;8.952;2023-03-04T00:21:19;16.37;;;7.57;;
4585;SDS011;2305;50.118;8.952;2023-03-04T00:23:48;13.60;;;7.90;;
4585;SDS011;2305;50.118;8.952;2023-03-04T00:26:18;14.03;;;7.90;;
4585;SDS011;2305;50.118;8.952;2023-03-04T00:28:48;20.10;;;8.60;;
4585;SDS011;2305;50.118;8.952;2023-03-04T00:31:19;18.07;;;8.53;;
4585;SDS011;2305;50.118;8.952;2023-03-04T00:33:48;15.20;;;7.47;;
4585;SDS011;2305;50.118;8.952;2023-03-04T00:36:16;16.60;;;8.00;;
4585;SDS011;2305;50.118;8.952;2023-03-04T00:38:44;16.23;;;7.83;;
4585;SDS011;2305;50.118;8.952;2023-03-04T00:41:12;17.23;;;8.23;;
4585;SDS011;2305;50.118;8.952;2023-03-04T00:43:40;18.27;;;8.07;;
4585;SDS011;2305;50.118;8.952;2023-03-04T00:46:12;16.73;;;8.20;;
4585;SDS011;2305;50.118;8.952;2023-03-04T00:48:41;19.20;;;8.77;;
4585;SDS011;2305;50.118;8.952;2023-03-04T00:51:10;12.70;;;7.97;;
4585;SDS011;2305;50.118;8.952;2023-03-04T00:53:38;17.03;;;8.10;;
4585;SDS011;2305;50.118;8.952;2023-03-04T00:56:09;15.93;;;7.80;;
4585;SDS011;2305;50.118;8.952;2023-03-04T00:58:38;24.00;;;7.83;;
4585;SDS011;2305;50.118;8.952;2023-03-04T01:01:06;16.77;;;8.87;;
4585;SDS011;2305;50.118;8.952;2023-03-04T01:03:35;14.77;;;8.33;;
4585;SDS011;2305;50.118;8.952;2023-03-04T01:06:07;13.63;;;8.20;;
4585;SDS011;2305;50.118;8.952;2023-03-04T01:08:40;20.83;;;9.27;;
4585;SDS011;2305;50.118;8.952;2023-03-04T01:11:10;15.43;;;8.53;;
4585;SDS011;2305;50.118;8.952;2023-03-04T01:13:39;26.20;;;9.40;;
4585;SDS011;2305;50.118;8.952;2023-03-04T01:16:10;19.47;;;9.90;;
4585;SDS011;2305;50.118;8.952;2023-03-04T01:18:42;19.37;;;9.37;;
4585;SDS011;2305;50.118;8.952;2023-03-04T01:21:12;18.77;;;9.47;;
4585;SDS011;2305;50.118;8.952;2023-03-04T01:23:41;18.20;;;9.30;;
4585;SDS011;2305;50.118;8.952;2023-03-04T01:26:09;14.20;;;7.60;;
4585;SDS011;2305;50.118;8.952;2023-03-04T01:28:37;19.03;;;9.70;;
4585;SDS011;2305;50.118;8.952;2023-03-04T01:31:05;22.43;;;9.77;;
4585;SDS011;2305;50.118;8.952;2023-03-04T01:33:34;17.90;;;9.83;;
4585;SDS011;2305;50.118;8.952;2023-03-04T01:36:05;16.23;;;8.17;;
4585;SDS011;2305;50.118;8.952;2023-03-04T01:38:34;17.53;;;8.70;;
4585;SDS011;2305;50.118;8.952;2023-03-04T01:41:02;18.07;;;9.80;;
4585;SDS011;2305;50.118;8.952;2023-03-04T01:43:31;15.13;;;8.90;;
4585;SDS011;2305;50.118;8.952;2023-03-04T01:46:00;18.43;;;9.17;;
4585;SDS011;2305;50.118;8.952;2023-03-04T01:48:30;21.97;;;8.60;;
4585;SDS011;2305;50.118;8.952;2023-03-04T01:51:09;18.00;;;8.73;;
4585;SDS011;2305;50.118;8.952;2023-03-04T01:53:44;18.37;;;9.40;;
4585;SDS011;2305;50.118;8.952;2023-03-04T01:56:18;16.43;;;8.47;;
4585;SDS011;2305;50.118;8.952;2023-03-04T01:59:05;17.40;;;8.37;;
4585;SDS011;2305;50.118;8.952;2023-03-04T02:01:36;17.70;;;8.70;;
4585;SDS011;2305;50.118;8.952;2023-03-04T02:04:07;16.53;;;9.33;;
4585;SDS011;2305;50.118;8.952;2023-03-04T02:06:40;21.10;;;9.40;;
4585;SDS011;2305;50.118;8.952;2023-03-04T02:09:09;14.37;;;7.80;;
4585;SDS011;2305;50.118;8.952;2023-03-04T02:11:39;20.10;;;9.10;;
4585;SDS011;2305;50.118;8.952;2023-03-04T02:14:08;17.20;;;8.40;;
4585;SDS011;2305;50.118;8.952;2023-03-04T02:16:39;14.70;;;8.67;;
4585;SDS011;2305;50.118;8.952;2023-03-04T02:19:15;18.50;;;8.77;;
4585;SDS011;2305;50.118;8.952;2023-03-04T02:21:56;16.20;;;8.40;;
4585;SDS011;2305;50.118;8.952;2023-03-04T02:24:28;19.90;;;8.53;;
4585;SDS011;2305;50.118;8.952;2023-03-04T02:27:06;16.67;;;8.87;;
4585;SDS011;2305;50.118;8.952;2023-03-04T02:29:34;19.87;;;9.73;;
4585;SDS011;2305;50.118;8.952;2023-03-04T02:32:05;13.93;;;8.30;;
4585;SDS011;2305;50.118;8.952;2023-03-04T02:34:33;18.13;;;9.43;;
4585;SDS011;2305;50.118;8.952;2023-03-04T02:37:02;20.17;;;10.00;;
4585;SDS011;2305;50.118;8.952;2023-03-04T02:39:33;20.60;;;9.13;;
4585;SDS011;2305;50.118;8.952;2023-03-04T02:42:07;17.33;;;8.60;;
4585;SDS011;2305;50.118;8.952;2023-03-04T02:44:36;19.90;;;9.30;;
4585;SDS011;2305;50.118;8.952;2023-03-04T02:47:11;19.13;;;9.30;;
4585;SDS011;2305;50.118;8.952;2023-03-04T02:49:42;18.43;;;8.70;;
4585;SDS011;2305;50.118;8.952;2023-03-04T02:52:14;17.20;;;9.60;;
4585;SDS011;2305;50.118;8.952;2023-03-04T02:54:48;18.40;;;10.07;;
4585;SDS011;2305;50.118;8.952;2023-03-04T02:57:18;18.30;;;10.07;;
4585;SDS011;2305;50.118;8.952;2023-03-04T02:59:51;14.93;;;7.93;;
4585;SDS011;2305;50.118;8.952;2023-03-04T03:02:25;17.03;;;8.87;;
4585;SDS011;2305;50.118;8.952;2023-03-04T03:04:57;16.93;;;9.30;;
4585;SDS011;2305;50.118;8.952;2023-03-04T03:07:26;15.97;;;9.00;;
4585;SDS011;2305;50.118;8.952;2023-03-04T03:09:55;26.17;;;8.97;;
4585;SDS011;2305;50.118;8.952;2023-03-04T03:12:25;16.97;;;9.60;;
4585;SDS011;2305;50.118;8.952;2023-03-04T03:14:53;18.10;;;9.57;;
4585;SDS011;2305;50.118;8.952;2023-03-04T03:17:23;15.37;;;8.53;;
4585;SDS011;2305;50.118;8.952;2023-03-04T03:19:51;19.30;;;9.50;;
4585;SDS011;2305;50.118;8.952;2023-03-04T03:22:19;20.10;;;10.20;;
4585;SDS011;2305;50.118;8.952;2023-03-04T03:24:47;17.03;;;10.27;;
4585;SDS011;2305;50.118;8.952;2023-03-04T03:27:15;18.43;;;9.57;;
4585;SDS011;2305;50.118;8.952;2023-03-04T03:29:46;16.83;;;8.33;;
4585;SDS011;2305;50.118;8.952;2023-03-04T03:32:14;17.33;;;9.30;;
4585;SDS011;2305;50.118;8.952;2023-03-04T03:34:45;13.50;;;8.83;;
4585;SDS011;2305;50.118;8.952;2023-03-04T03:37:15;14.27;;;8.80;;
4585;SDS011;2305;50.118;8.952;2023-03-04T03:39:43;19.00;;;9.00;;
4585;SDS011;2305;50.118;8.952;2023-03-04T03:42:11;15.73;;;8.50;;
4585;SDS011;2305;50.118;8.952;2023-03-04T03:44:42;17.67;;;9.30;;
4585;SDS011;2305;50.118;8.952;2023-03-04T03:47:12;16.87;;;9.00;;
4585;SDS011;2305;50.118;8.952;2023-03-04T03:49:40;18.23;;;10.27;;
4585;SDS011;2305;50.118;8.952;2023-03-04T03:52:09;21.97;;;9.37;;
4585;SDS011;2305;50.118;8.952;2023-03-04T03:54:38;18.10;;;9.87;;
4585;SDS011;2305;50.118;8.952;2023-03-04T03:57:08;15.67;;;8.30;;
4585;SDS011;2305;50.118;8.952;2023-03-04T03:59:36;17.30;;;9.23;;
4585;SDS011;2305;50.118;8.952;2023-03-04T04:02:04;15.40;;;8.63;;
4585;SDS011;2305;50.118;8.952;2023-03-04T04:04:33;17.37;;;9.27;;
4585;SDS011;2305;50.118;8.952;2023-03-04T04:07:02;18.00;;;10.20;;
4585;SDS011;2305;50.118;8.952;2023-03-04T04:09:31;21.70;;;10.27;;
4585;SDS011;2305;50.118;8.952;2023-03-04T04:11:59;17.27;;;9.03;;
4585;SDS011;2305;50.118;8.952;2023-03-04T04:14:30;20.03;;;9.37;;
4585;SDS011;2305;50.118;8.952;2023-03-04T04:17:00;24.43;;;11.00;;
4585;SDS011;2305;50.118;8.952;2023-03-04T04:19:29;17.50;;;9.50;;
4585;SDS011;2305;50.118;8.952;2023-03-04T04:21:59;17.43;;;9.77;;
4585;SDS011;2305;50.118;8.952;2023-03-04T04:24:30;18.63;;;9.80;;
4585;SDS011;2305;50.118;8.952;2023-03-04T04:27:00;20.90;;;11.60;;
4585;SDS011;2305;50.118;8.952;2023-03-04T04:29:30;19.60;;;10.20;;
4585;SDS011;2305;50.118;8.952;2023-03-04T04:31:59;19.43;;;10.00;;
4585;SDS011;2305;50.118;8.952;2023-03-04T04:34:28;19.60;;;11.00;;
4585;SDS011;2305;50.118;8.952;2023-03-04T04:37:00;20.80;;;10.87;;
4585;SDS011;2305;50.118;8.952;2023-03-04T04:39:31;19.80;;;10.20;;
4585;SDS011;2305;50.118;8.952;2023-03-04T04:42:01;16.10;;;9.03;;
4585;SDS011;2305;50.118;8.952;2023-03-04T04:44:29;18.43;;;9.97;;
4585;SDS011;2305;50.118;8.952;2023-03-04T04:46:58;17.07;;;9.60;;
4585;SDS011;2305;50.118;8.952;2023-03-04T04:49:26;17.77;;;8.40;;
4585;SDS011;2305;50.118;8.952;2023-03-04T04:51:56;18.73;;;10.40;;
4585;SDS011;2305;50.118;8.952;2023-03-04T04:54:25;18.70;;;9.90;;
4585;SDS011;2305;50.118;8.952;2023-03-04T04:56:53;22.30;;;11.00;;
4585;SDS011;2305;50.118;8.952;2023-03-04T04:59:21;20.20;;;10.17;;
4585;SDS011;2305;50.118;8.952;2023-03-04T05:01:51;16.57;;;8.70;;
4585;SDS011;2305;50.118;8.952;2023-03-04T05:04:19;22.27;;;10.90;;
4585;SDS011;2305;50.118;8.952;2023-03-04T05:06:47;18.20;;;11.00;;
4585;SDS011;2305;50.118;8.952;2023-03-04T05:09:16;19.53;;;10.80;;
4585;SDS011;2305;50.118;8.952;2023-03-04T05:11:47;20.17;;;9.57;;
4585;SDS011;2305;50.118;8.952;2023-03-04T05:14:15;18.83;;;10.33;;
4585;SDS011;2305;50.118;8.952;2023-03-04T05:16:44;20.20;;;10.53;;
4585;SDS011;2305;50.118;8.952;2023-03-04T05:19:13;19.03;;;11.13;;
4585;SDS011;2305;50.118;8.952;2023-03-04T05:21:41;18.90;;;10.33;;
4585;SDS011;2305;50.118;8.952;2023-03-04T05:24:11;19.80;;;10.30;;
4585;SDS011;2305;50.118;8.952;2023-03-04T05:26:40;17.93;;;10.03;;
4585;SDS011;2305;50.118;8.952;2023-03-04T05:29:10;19.37;;;10.77;;
4585;SDS011;2305;50.118;8.952;2023-03-04T05:31:38;18.93;;;10.30;;
4585;SDS011;2305;50.118;8.952;2023-03-04T05:34:10;24.43;;;11.03;;
4585;SDS011;2305;50.118;8.952;2023-03-04T05:36:38;19.87;;;10.90;;
4585;SDS011;2305;50.118;8.952;2023-03-04T05:39:06;18.63;;;10.43;;
4585;SDS011;2305;50.118;8.952;2023-03-04T05:41:37;17.23;;;9.70;;
4585;SDS011;2305;50.118;8.952;2023-03-04T05:44:05;22.13;;;10.13;;
4585;SDS011;2305;50.118;8.952;2023-03-04T05:46:37;18.60;;;11.07;;
4585;SDS011;2305;50.118;8.952;2023-03-04T05:49:05;19.53;;;10.07;;
4585;SDS011;2305;50.118;8.952;2023-03-04T05:51:36;19.03;;;10.30;;
4585;SDS011;2305;50.118;8.952;2023-03-04T05:54:04;16.67;;;10.23;;
4585;SDS011;2305;50.118;8.952;2023-03-04T05:56:32;21.70;;;10.90;;
4585;SDS011;2305;50.118;8.952;2023-03-04T05:59:00;23.97;;;11.00;;
4585;SDS011;2305;50.118;8.952;2023-03-04T06:01:28;21.47;;;10.60;;
4585;SDS011;2305;50.118;8.952;2023-03-04T06:03:58;22.10;;;10.80;;
4585;SDS011;2305;50.118;8.952;2023-03-04T06:06:29;25.93;;;11.27;;
4585;SDS011;2305;50.118;8.952;2023-03-04T06:08:57;21.50;;;10.77;;
4585;SDS011;2305;50.118;8.952;2023-03-04T06:11:25;21.17;;;10.70;;
4585;SDS011;2305;50.118;8.952;2023-03-04T06:13:56;19.60;;;10.93;;
4585;SDS011;2305;50.118;8.952;2023-03-04T06:16:24;19.20;;;10.80;;
4585;SDS011;2305;50.118;8.952;2023-03-04T06:18:53;25.33;;;11.33;;
4585;SDS011;2305;50.118;8.952;2023-03-04T06:21:23;18.07;;;10.43;;
4585;SDS011;2305;50.118;8.952;2023-03-04T06:23:51;20.27;;;10.00;;
4585;SDS011;2305;50.118;8.952;2023-03-04T06:26:20;19.40;;;10.83;;
4585;SDS011;2305;50.118;8.952;2023-03-04T06:28:51;19.17;;;11.70;;
4585;SDS011;2305;50.118;8.952;2023-03-04T06:31:22;22.80;;;11.00;;
4585;SDS011;2305;50.118;8.952;2023-03-04T06:33:53;22.10;;;11.23;;
4585;SDS011;2305;50.118;8.952;2023-03-04T06:36:23;21.33;;;10.83;;
4585;SDS011;2305;50.118;8.952;2023-03-04T06:38:51;22.90;;;11.43;;
4585;SDS011;2305;50.118;8.952;2023-03-04T06:41:19;24.20;;;11.10;;
4585;SDS011;2305;50.118;8.952;2023-03-04T06:43:47;17.50;;;9.63;;
4585;SDS011;2305;50.118;8.952;2023-03-04T06:46:16;19.67;;;10.23;;
4585;SDS011;2305;50.118;8.952;2023-03-04T06:48:46;25.80;;;11.47;;
4585;SDS011;2305;50.118;8.952;2023-03-04T06:51:17;21.67;;;11.57;;
4585;SDS011;2305;50.118;8.952;2023-03-04T06:53:50;31.83;;;16.40;;
4585;SDS011;2305;50.118;8.952;2023-03-04T06:56:18;55.87;;;31.60;;
4585;SDS011;2305;50.118;8.952;2023-03-04T06:58:46;30.43;;;15.20;;
4585;SDS011;2305;50.118;8.952;2023-03-04T07:01:19;22.30;;;12.53;;
4585;SDS011;2305;50.118;8.952;2023-03-04T07:03:48;21.73;;;11.23;;
4585;SDS011;2305;50.118;8.952;2023-03-04T07:06:18;21.47;;;11.30;;
4585;SDS011;2305;50.118;8.952;2023-03-04T07:08:50;22.83;;;12.17;;
4585;SDS011;2305;50.118;8.952;2023-03-04T07:11:19;21.80;;;12.20;;
4585;SDS011;2305;50.118;8.952;2023-03-04T07:13:49;19.63;;;11.93;;
4585;SDS011;2305;50.118;8.952;2023-03-04T07:16:19;22.07;;;12.00;;
4585;SDS011;2305;50.118;8.952;2023-03-04T07:18:48;19.40;;;12.20;;
4585;SDS011;2305;50.118;8.952;2023-03-04T07:21:17;23.30;;;12.33;;
4585;SDS011;2305;50.118;8.952;2023-03-04T07:23:49;25.60;;;12.27;;
4585;SDS011;2305;50.118;8.952;2023-03-04T07:26:20;22.50;;;11.33;;
4585;SDS011;2305;50.118;8.952;2023-03-04T07:28:50;29.53;;;13.47;;
4585;SDS011;2305;50.118;8.952;2023-03-04T07:31:21;20.90;;;11.80;;
4585;SDS011;2305;50.118;8.952;2023-03-04T07:33:54;92.90;;;50.00;;
4585;SDS011;2305;50.118;8.952;2023-03-04T07:36:24;58.63;;;32.10;;
4585;SDS011;2305;50.118;8.952;2023-03-04T07:38:55;26.13;;;13.93;;
4585;SDS011;2305;50.118;8.952;2023-03-04T07:41:26;19.93;;;11.47;;
4585;SDS011;2305;50.118;8.952;2023-03-04T07:43:56;22.27;;;11.73;;
4585;SDS011;2305;50.118;8.952;2023-03-04T07:46:25;20.47;;;11.53;;
4585;SDS011;2305;50.118;8.952;2023-03-04T07:48:59;36.50;;;12.53;;
4585;SDS011;2305;50.118;8.952;2023-03-04T07:51:28;21.80;;;11.70;;
4585;SDS011;2305;50.118;8.952;2023-03-04T07:53:58;27.87;;;12.60;;
4585;SDS011;2305;50.118;8.952;2023-03-04T07:56:28;24.23;;;12.13;;
4585;SDS011;2305;50.118;8.952;2023-03-04T07:58:58;27.67;;;13.67;;
4585;SDS011;2305;50.118;8.952;2023-03-04T08:01:27;26.50;;;12.97;;
4585;SDS011;2305;50.118;8.952;2023-03-04T08:03:57;77.97;;;43.90;;
4585;SDS011;2305;50.118;8.952;2023-03-04T08:06:25;138.80;;;75.90;;
4585;SDS011;2305;50.118;8.952;2023-03-04T08:08:58;46.13;;;26.30;;
4585;SDS011;2305;50.118;8.952;2023-03-04T08:11:29;27.30;;;15.30;;
4585;SDS011;2305;50.118;8.952;2023-03-04T08:13:59;22.87;;;11.87;;
4585;SDS011;2305;50.118;8.952;2023-03-04T08:16:29;26.07;;;13.73;;
4585;SDS011;2305;50.118;8.952;2023-03-04T08:19:00;27.90;;;13.30;;
4585;SDS011;2305;50.118;8.952;2023-03-04T08:21:28;24.73;;;13.33;;
4585;SDS011;2305;50.118;8.952;2023-03-04T08:23:58;27.90;;;13.47;;
4585;SDS011;2305;50.118;8.952;2023-03-04T08:26:30;22.93;;;12.80;;
4585;SDS011;2305;50.118;8.952;2023-03-04T08:29:01;28.13;;;12.10;;
4585;SDS011;2305;50.118;8.952;2023-03-04T08:31:33;20.87;;;12.00;;
4585;SDS011;2305;50.118;8.952;2023-03-04T08:34:02;23.87;;;13.50;;
4585;SDS011;2305;50.118;8.952;2023-03-04T08:36:33;28.57;;;14.13;;
4585;SDS011;2305;50.118;8.952;2023-03-04T08:39:02;54.50;;;27.90;;
4585;SDS011;2305;50.118;8.952;2023-03-04T08:41:31;84.87;;;49.53;;
4585;SDS011;2305;50.118;8.952;2023-03-04T08:44:02;38.07;;;22.20;;
4585;SDS011;2305;50.118;8.952;2023-03-04T08:46:34;34.13;;;15.47;;
4585;SDS011;2305;50.118;8.952;2023-03-04T08:49:02;28.33;;;14.57;;
4585;SDS011;2305;50.118;8.952;2023-03-04T08:51:30;25.23;;;13.60;;
4585;SDS011;2305;50.118;8.952;2023-03-04T08:54:02;27.37;;;13.27;;
4585;SDS011;2305;50.118;8.952;2023-03-04T08:56:32;23.67;;;13.30;;
4585;SDS011;2305;50.118;8.952;2023-03-04T08:59:02;22.90;;;12.57;;
4585;SDS011;2305;50.118;8.952;2023-03-04T09:01:30;31.53;;;14.10;;
4585;SDS011;2305;50.118;8.952;2023-03-04T09:04:00;30.57;;;15.10;;
4585;SDS011;2305;50.118;8.952;2023-03-04T09:06:29;25.57;;;14.40;;
4585;SDS011;2305;50.118;8.952;2023-03-04T09:08:58;25.93;;;13.70;;
4585;SDS011;2305;50.118;8.952;2023-03-04T09:11:34;27.03;;;13.10;;
4585;SDS011;2305;50.118;8.952;2023-03-04T09:14:03;33.40;;;16.10;;
4585;SDS011;2305;50.118;8.952;2023-03-04T09:16:35;24.20;;;12.90;;
4585;SDS011;2305;50.118;8.952;2023-03-04T09:19:03;39.03;;;14.60;;
4585;SDS011;2305;50.118;8.952;2023-03-04T09:21:31;30.23;;;14.70;;
4585;SDS011;2305;50.118;8.952;2023-03-04T09:24:00;42.67;;;14.37;;
4585;SDS011;2305;50.118;8.952;2023-03-04T09:26:29;32.87;;;14.77;;
4585;SDS011;2305;50.118;8.952;2023-03-04T09:29:01;29.57;;;14.00;;
4585;SDS011;2305;50.118;8.952;2023-03-04T09:31:29;25.17;;;14.20;;
4585;SDS011;2305;50.118;8.952;2023-03-04T09:33:58;30.00;;;14.33;;
4585;SDS011;2305;50.118;8.952;2023-03-04T09:36:29;30.43;;;15.00;;
4585;SDS011;2305;50.118;8.952;2023-03-04T09:38:59;22.17;;;12.77;;
4585;SDS011;2305;50.118;8.952;2023-03-04T09:41:31;27.90;;;14.27;;
4585;SDS011;2305;50.118;8.952;2023-03-04T09:44:06;27.03;;;14.20;;
4585;SDS011;2305;50.118;8.952;2023-03-04T09:46:53;31.93;;;14.27;;
4585;SDS011;2305;50.118;8.952;2023-03-04T09:49:27;28.50;;;14.67;;
4585;SDS011;2305;50.118;8.952;2023-03-04T09:51:58;24.10;;;13.47;;
4585;SDS011;2305;50.118;8.952;2023-03-04T09:54:41;25.20;;;13.70;;
4585;SDS011;2305;50.118;8.952;2023-03-04T09:57:26;27.20;;;12.83;;
4585;SDS011;2305;50.118;8.952;2023-03-04T10:00:16;24.93;;;12.37;;
4585;SDS011;2305;50.118;8.952;2023-03-04T10:03:03;29.03;;;14.00;;
4585;SDS011;2305;50.118;8.952;2023-03-04T10:05:38;28.10;;;14.60;;
4585;SDS011;2305;50.118;8.952;2023-03-04T10:11:05;29.37;;;13.83;;
4585;SDS011;2305;50.118;8.952;2023-03-04T10:13:47;26.00;;;13.43;;
4585;SDS011;2305;50.118;8.952;2023-03-04T10:16:23;28.50;;;14.30;;
4585;SDS011;2305;50.118;8.952;2023-03-04T10:18:57;23.07;;;12.30;;
4585;SDS011;2305;50.118;8.952;2023-03-04T10:21:31;28.93;;;13.47;;
4585;SDS011;2305;50.118;8.952;2023-03-04T10:24:06;30.50;;;12.13;;
4585;SDS011;2305;50.118;8.952;2023-03-04T10:26:39;23.43;;;11.30;;
4585;SDS011;2305;50.118;8.952;2023-03-04T10:29:14;23.83;;;10.73;;
4585;SDS011;2305;50.118;8.952;2023-03-04T10:31:45;17.80;;;10.33;;
4585;SDS011;2305;50.118;8.952;2023-03-04T10:34:15;28.80;;;9.40;;
4585;SDS011;2305;50.118;8.952;2023-03-04T10:36:55;23.63;;;8.53;;
4585;SDS011;2305;50.118;8.952;2023-03-04T10:39:29;30.83;;;9.57;;
4585;SDS011;2305;50.118;8.952;2023-03-04T10:41:59;20.33;;;9.00;;
4585;SDS011;2305;50.118;8.952;2023-03-04T10:44:30;24.77;;;8.67;;
4585;SDS011;2305;50.118;8.952;2023-03-04T10:47:04;25.23;;;7.80;;
4585;SDS011;2305;50.118;8.952;2023-03-04T10:49:48;22.70;;;6.73;;
4585;SDS011;2305;50.118;8.952;2023-03-04T10:52:26;22.90;;;7.33;;
4585;SDS011;2305;50.118;8.952;2023-03-04T10:54:56;20.17;;;6.27;;
4585;SDS011;2305;50.118;8.952;2023-03-04T10:57:28;16.63;;;5.57;;
4585;SDS011;2305;50.118;8.952;2023-03-04T11:00:03;16.67;;;5.63;;
4585;SDS011;2305;50.118;8.952;2023-03-04T11:03:11;11.33;;;5.63;;
4585;SDS011;2305;50.118;8.952;2023-03-04T11:08:52;18.13;;;6.43;;
4585;SDS011;2305;50.118;8.952;2023-03-04T11:11:22;13.23;;;5.87;;
4585;SDS011;2305;50.118;8.952;2023-03-04T11:13:52;10.80;;;5.40;;
4585;SDS011;2305;50.118;8.952;2023-03-04T11:16:27;14.50;;;5.10;;
4585;SDS011;2305;50.118;8.952;2023-03-04T11:19:00;14.80;;;5.70;;
4585;SDS011;2305;50.118;8.952;2023-03-04T11:21:33;11.30;;;5.30;;
4585;SDS011;2305;50.118;8.952;2023-03-04T11:24:10;16.50;;;5.53;;
4585;SDS011;2305;50.118;8.952;2023-03-04T11:27:00;15.47;;;5.33;;
4585;SDS011;2305;50.118;8.952;2023-03-04T11:29:33;15.43;;;5.30;;
4585;SDS011;2305;50.118;8.952;2023-03-04T11:32:09;13.87;;;5.23;;
4585;SDS011;2305;50.118;8.952;2023-03-04T11:34:45;13.10;;;6.00;;
4585;SDS011;2305;50.118;8.952;2023-03-04T11:37:21;17.17;;;5.67;;
4585;SDS011;2305;50.118;8.952;2023-03-04T11:39:57;21.90;;;6.30;;
4585;SDS011;2305;50.118;8.952;2023-03-04T11:42:34;13.40;;;5.97;;
4585;SDS011;2305;50.118;8.952;2023-03-04T11:45:10;9.10;;;5.40;;
4585;SDS011;2305;50.118;8.952;2023-03-04T11:51:03;15.77;;;5.40;;
4585;SDS011;2305;50.118;8.952;2023-03-04T11:53:39;10.30;;;4.80;;
4585;SDS011;2305;50.118;8.952;2023-03-04T11:56:25;12.10;;;5.23;;
4585;SDS011;2305;50.118;8.952;2023-03-04T11:59:10;11.20;;;4.70;;
4585;SDS011;2305;50.118;8.952;2023-03-04T12:01:55;9.50;;;4.90;;
4585;SDS011;2305;50.118;8.952;2023-03-04T12:04:47;12.30;;;5.13;;
4585;SDS011;2305;50.118;8.952;2023-03-04T12:10:54;17.23;;;5.77;;
4585;SDS011;2305;50.118;8.952;2023-03-04T12:19:46;12.00;;;5.10;;
4585;SDS011;2305;50.118;8.952;2023-03-04T12:22:30;13.53;;;4.53;;
4585;SDS011;2305;50.118;8.952;2023-03-04T12:25:18;11.10;;;4.33;;
4585;SDS011;2305;50.118;8.952;2023-03-04T12:28:01;12.40;;;5.07;;
4585;SDS011;2305;50.118;8.952;2023-03-04T12:30:42;21.43;;;5.20;;
4585;SDS011;2305;50.118;8.952;2023-03-04T12:33:23;11.57;;;4.50;;
4585;SDS011;2305;50.118;8.952;2023-03-04T12:36:01;8.93;;;4.30;;
4585;SDS011;2305;50.118;8.952;2023-03-04T12:38:46;8.50;;;4.07;;
4585;SDS011;2305;50.118;8.952;2023-03-04T12:41:26;13.20;;;3.93;;
4585;SDS011;2305;50.118;8.952;2023-03-04T12:44:06;8.57;;;3.80;;
4585;SDS011;2305;50.118;8.952;2023-03-04T12:46:44;12.90;;;3.90;;
4585;SDS011;2305;50.118;8.952;2023-03-04T12:49:36;10.40;;;4.13;;
4585;SDS011;2305;50.118;8.952;2023-03-04T12:52:15;18.60;;;3.53;;
4585;SDS011;2305;50.118;8.952;2023-03-04T12:54:55;7.50;;;4.00;;
4585;SDS011;2305;50.118;8.952;2023-03-04T12:57:26;11.27;;;4.27;;
4585;SDS011;2305;50.118;8.952;2023-03-04T13:00:07;7.80;;;3.87;;
4585;SDS011;2305;50.118;8.952;2023-03-04T13:02:49;11.43;;;3.00;;
4585;SDS011;2305;50.118;8.952;2023-03-04T13:05:32;6.10;;;3.30;;
4585;SDS011;2305;50.118;8.952;2023-03-04T13:08:11;9.80;;;4.23;;
4585;SDS011;2305;50.118;8.952;2023-03-04T13:10:51;8.00;;;3.70;;
4585;SDS011;2305;50.118;8.952;2023-03-04T13:13:33;7.80;;;3.73;;
4585;SDS011;2305;50.118;8.952;2023-03-04T13:19:02;8.30;;;3.53;;
4585;SDS011;2305;50.118;8.952;2023-03-04T13:22:27;12.00;;;3.90;;
4585;SDS011;2305;50.118;8.952;2023-03-04T13:25:01;8.20;;;3.77;;
4585;SDS011;2305;50.118;8.952;2023-03-04T13:28:11;7.00;;;3.70;;
4585;SDS011;2305;50.118;8.952;2023-03-04T13:34:03;6.80;;;3.97;;
4585;SDS011;2305;50.118;8.952;2023-03-04T13:39:29;11.77;;;3.37;;
4585;SDS011;2305;50.118;8.952;2023-03-04T13:41:58;8.17;;;3.20;;
4585;SDS011;2305;50.118;8.952;2023-03-04T13:50:23;11.90;;;3.60;;
4585;SDS011;2305;50.118;8.952;2023-03-04T13:52:59;13.20;;;3.50;;
4585;SDS011;2305;50.118;8.952;2023-03-04T13:55:59;6.60;;;2.80;;
4585;SDS011;2305;50.118;8.952;2023-03-04T13:58:34;7.10;;;4.37;;
4585;SDS011;2305;50.118;8.952;2023-03-04T14:01:04;6.30;;;3.23;;
4585;SDS011;2305;50.118;8.952;2023-03-04T14:03:47;5.60;;;2.80;;
4585;SDS011;2305;50.118;8.952;2023-03-04T14:06:17;9.03;;;3.50;;
4585;SDS011;2305;50.118;8.952;2023-03-04T14:08:52;6.20;;;3.30;;
4585;SDS011;2305;50.118;8.952;2023-03-04T14:11:27;7.40;;;2.70;;
4585;SDS011;2305;50.118;8.952;2023-03-04T14:14:02;6.57;;;2.97;;
4585;SDS011;2305;50.118;8.952;2023-03-04T14:16:34;4.53;;;2.70;;
4585;SDS011;2305;50.118;8.952;2023-03-04T14:19:11;7.37;;;2.70;;
4585;SDS011;2305;50.118;8.952;2023-03-04T14:21:46;8.13;;;2.77;;
4585;SDS011;2305;50.118;8.952;2023-03-04T14:24:16;10.93;;;2.73;;
4585;SDS011;2305;50.118;8.952;2023-03-04T14:26:46;8.47;;;3.30;;
4585;SDS011;2305;50.118;8.952;2023-03-04T14:29:19;10.53;;;3.60;;
4585;SDS011;2305;50.118;8.952;2023-03-04T14:31:51;5.87;;;3.30;;
4585;SDS011;2305;50.118;8.952;2023-03-04T14:34:25;9.90;;;3.07;;
4585;SDS011;2305;50.118;8.952;2023-03-04T14:37:00;4.60;;;3.07;;
4585;SDS011;2305;50.118;8.952;2023-03-04T14:39:30;6.10;;;3.30;;
4585;SDS011;2305;50.118;8.952;2023-03-04T14:42:03;9.73;;;3.40;;
4585;SDS011;2305;50.118;8.952;2023-03-04T14:44:37;9.63;;;4.27;;
4585;SDS011;2305;50.118;8.952;2023-03-04T14:47:14;9.07;;;3.90;;
4585;SDS011;2305;50.118;8.952;2023-03-04T14:49:45;10.17;;;4.87;;
4585;SDS011;2305;50.118;8.952;2023-03-04T14:52:33;13.43;;;3.67;;
4585;SDS011;2305;50.118;8.952;2023-03-04T14:57:52;16.97;;;4.00;;
4585;SDS011;2305;50.118;8.952;2023-03-04T15:00:29;7.10;;;3.20;;
4585;SDS011;2305;50.118;8.952;2023-03-04T15:03:03;7.40;;;2.80;;
4585;SDS011;2305;50.118;8.952;2023-03-04T15:05:47;9.50;;;3.73;;
4585;SDS011;2305;50.118;8.952;2023-03-04T15:08:26;8.63;;;4.10;;
4585;SDS011;2305;50.118;8.952;2023-03-04T15:11:00;6.47;;;3.20;;
4585;SDS011;2305;50.118;8.952;2023-03-04T15:13:42;9.57;;;3.40;;
4585;SDS011;2305;50.118;8.952;2023-03-04T15:16:16;5.93;;;3.10;;
4585;SDS011;2305;50.118;8.952;2023-03-04T15:18:52;6.67;;;3.03;;
4585;SDS011;2305;50.118;8.952;2023-03-04T15:21:34;9.77;;;3.50;;
4585;SDS011;2305;50.118;8.952;2023-03-04T15:24:09;4.97;;;2.97;;
4585;SDS011;2305;50.118;8.952;2023-03-04T15:26:39;7.77;;;3.87;;
4585;SDS011;2305;50.118;8.952;2023-03-04T15:29:11;7.93;;;3.13;;
4585;SDS011;2305;50.118;8.952;2023-03-04T15:31:41;7.73;;;3.50;;
4585;SDS011;2305;50.118;8.952;2023-03-04T15:34:10;22.63;;;4.07;;
4585;SDS011;2305;50.118;8.952;2023-03-04T15:36:42;8.03;;;4.33;;
4585;SDS011;2305;50.118;8.952;2023-03-04T15:39:15;12.97;;;4.47;;
4585;SDS011;2305;50.118;8.952;2023-03-04T15:41:47;9.47;;;4.67;;
4585;SDS011;2305;50.118;8.952;2023-03-04T15:44:18;10.07;;;4.00;;
4585;SDS011;2305;50.118;8.952;2023-03-04T15:46:47;11.03;;;3.97;;
4585;SDS011;2305;50.118;8.952;2023-03-04T15:49:15;9.97;;;4.90;;
4585;SDS011;2305;50.118;8.952;2023-03-04T15:51:43;10.47;;;4.63;;
4585;SDS011;2305;50.118;8.952;2023-03-04T15:54:16;9.23;;;4.20;;
4585;SDS011;2305;50.118;8.952;2023-03-04T15:56:44;9.80;;;5.07;;
4585;SDS011;2305;50.118;8.952;2023-03-04T15:59:15;6.80;;;4.70;;
4585;SDS011;2305;50.118;8.952;2023-03-04T16:01:43;7.63;;;4.43;;
4585;SDS011;2305;50.118;8.952;2023-03-04T16:04:12;14.23;;;5.50;;
4585;SDS011;2305;50.118;8.952;2023-03-04T16:06:42;10.00;;;4.87;;
4585;SDS011;2305;50.118;8.952;2023-03-04T16:09:12;11.20;;;4.90;;